UAE221 OMDB-OOMS
Flight info
| Callsign | UAE221 |
|---|---|
| Flight time | 0h 44m |
| Altitude | 25000 |
| Route | ANVIX7F ANVIX L223 TARDI N629 MUSUK T511 MCT DCT |
| Aircraft | A388/J-SADE2E3FGHIJ3J4J5M1RWXY/LB1D1 |
Departure
| Time | 2026-04-25 09:53 |
|---|---|
| Airport | Dubai International Airport (OMDB) |
Arrival
| Time | 2026-04-25 10:38 |
|---|---|
| Airport | Muscat International Airport (OOMS) |
| Time | Latitude | Longitude | Altitude | Speed | Heading |
|---|---|---|---|---|---|
| 2026-04-25 09:09 | 25.24964 | 55.36144 | 27 ft | 0 kts | 211° |
| 2026-04-25 09:36 | 25.24964 | 55.36145 | 27 ft | 1 kts | 211° |
| 2026-04-25 09:36 | 25.24984 | 55.36158 | 26 ft | 4 kts | 211° |
| 2026-04-25 09:36 | 25.25008 | 55.36173 | 24 ft | 4 kts | 204° |
| 2026-04-25 09:36 | 25.25031 | 55.36185 | 24 ft | 4 kts | 227° |
| 2026-04-25 09:37 | 25.25041 | 55.36207 | 24 ft | 4 kts | 269° |
| 2026-04-25 09:37 | 25.25033 | 55.36232 | 24 ft | 4 kts | 310° |
| 2026-04-25 09:37 | 25.25022 | 55.36247 | 27 ft | 1 kts | 302° |
| 2026-04-25 09:37 | 25.25021 | 55.36250 | 27 ft | 0 kts | 302° |
| 2026-04-25 09:41 | 25.25021 | 55.36249 | 27 ft | 1 kts | 302° |
| 2026-04-25 09:41 | 25.25033 | 55.36228 | 27 ft | 6 kts | 302° |
| 2026-04-25 09:41 | 25.25060 | 55.36180 | 27 ft | 9 kts | 301° |
| 2026-04-25 09:42 | 25.25096 | 55.36115 | 27 ft | 11 kts | 303° |
| 2026-04-25 09:42 | 25.25153 | 55.36054 | 27 ft | 12 kts | 329° |
| 2026-04-25 09:42 | 25.25233 | 55.36003 | 27 ft | 14 kts | 329° |
| 2026-04-25 09:42 | 25.25304 | 55.35928 | 27 ft | 14 kts | 314° |
| 2026-04-25 09:43 | 25.25333 | 55.35908 | 27 ft | 2 kts | 348° |
| 2026-04-25 09:43 | 25.25343 | 55.35902 | 27 ft | 4 kts | 307° |
| 2026-04-25 09:43 | 25.25356 | 55.35872 | 27 ft | 8 kts | 292° |
| 2026-04-25 09:43 | 25.25388 | 55.35782 | 27 ft | 11 kts | 295° |
| 2026-04-25 09:44 | 25.25412 | 55.35732 | 26 ft | 12 kts | 300° |
| 2026-04-25 09:44 | 25.25463 | 55.35638 | 26 ft | 16 kts | 301° |
| 2026-04-25 09:44 | 25.25523 | 55.35530 | 26 ft | 17 kts | 301° |
| 2026-04-25 09:44 | 25.25584 | 55.35420 | 30 ft | 17 kts | 301° |
| 2026-04-25 09:45 | 25.25646 | 55.35308 | 29 ft | 17 kts | 302° |
| 2026-04-25 09:45 | 25.25721 | 55.35216 | 31 ft | 15 kts | 347° |
| 2026-04-25 09:45 | 25.25811 | 55.35248 | 29 ft | 15 kts | 32° |
| 2026-04-25 09:45 | 25.25906 | 55.35312 | 30 ft | 17 kts | 31° |
| 2026-04-25 09:46 | 25.25987 | 55.35398 | 28 ft | 17 kts | 61° |
| 2026-04-25 09:46 | 25.25993 | 55.35530 | 29 ft | 19 kts | 113° |
| 2026-04-25 09:46 | 25.25921 | 55.35660 | 31 ft | 22 kts | 121° |
| 2026-04-25 09:46 | 25.25833 | 55.35819 | 26 ft | 26 kts | 122° |
| 2026-04-25 09:47 | 25.25735 | 55.35997 | 27 ft | 28 kts | 121° |
| 2026-04-25 09:47 | 25.25630 | 55.36188 | 27 ft | 30 kts | 121° |
| 2026-04-25 09:47 | 25.25551 | 55.36328 | 27 ft | 17 kts | 122° |
| 2026-04-25 09:47 | 25.25483 | 55.36450 | 27 ft | 21 kts | 121° |
| 2026-04-25 09:48 | 25.25407 | 55.36589 | 27 ft | 21 kts | 121° |
| 2026-04-25 09:48 | 25.25347 | 55.36700 | 27 ft | 16 kts | 121° |
| 2026-04-25 09:48 | 25.25278 | 55.36823 | 27 ft | 21 kts | 123° |
| 2026-04-25 09:48 | 25.25199 | 55.36959 | 27 ft | 22 kts | 122° |
| 2026-04-25 09:49 | 25.25119 | 55.37108 | 29 ft | 15 kts | 121° |
| 2026-04-25 09:49 | 25.25058 | 55.37221 | 31 ft | 19 kts | 121° |
| 2026-04-25 09:49 | 25.24989 | 55.37342 | 34 ft | 22 kts | 123° |
| 2026-04-25 09:49 | 25.24952 | 55.37410 | 35 ft | 0 kts | 120° |
| 2026-04-25 09:50 | 25.24942 | 55.37427 | 35 ft | 11 kts | 120° |
| 2026-04-25 09:50 | 25.24918 | 55.37472 | 36 ft | 0 kts | 121° |
| 2026-04-25 09:50 | 25.24878 | 55.37545 | 38 ft | 28 kts | 121° |
| 2026-04-25 09:51 | 25.24822 | 55.37650 | 41 ft | 23 kts | 120° |
| 2026-04-25 09:51 | 25.24719 | 55.37828 | 45 ft | 20 kts | 120° |
| 2026-04-25 09:51 | 25.24684 | 55.37943 | 47 ft | 16 kts | 68° |
| 2026-04-25 09:51 | 25.24768 | 55.38011 | 47 ft | 16 kts | 18° |
| 2026-04-25 09:52 | 25.24841 | 55.37975 | 46 ft | 4 kts | 302° |
| 2026-04-25 09:52 | 25.24841 | 55.37974 | 46 ft | 0 kts | 302° |
| 2026-04-25 09:52 | 25.24872 | 55.37920 | 44 ft | 39 kts | 302° |
| 2026-04-25 09:52 | 25.25174 | 55.37376 | 32 ft | 121 kts | 302° |
| 2026-04-25 09:53 | 25.25689 | 55.36424 | 70 ft | 163 kts | 294° |
| 2026-04-25 09:53 | 25.26256 | 55.35315 | 532 ft | 167 kts | 301° |
| 2026-04-25 09:53 | 25.26866 | 55.34212 | 982 ft | 170 kts | 302° |
| 2026-04-25 09:53 | 25.27485 | 55.33098 | 1573 ft | 171 kts | 303° |
| 2026-04-25 09:54 | 25.28115 | 55.31952 | 2111 ft | 178 kts | 302° |
| 2026-04-25 09:54 | 25.28735 | 55.30809 | 2732 ft | 173 kts | 303° |
| 2026-04-25 09:54 | 25.29274 | 55.29643 | 3535 ft | 162 kts | 283° |
| 2026-04-25 09:54 | 25.29171 | 55.28420 | 4138 ft | 164 kts | 249° |
| 2026-04-25 09:55 | 25.28648 | 55.27315 | 4613 ft | 167 kts | 245° |
| 2026-04-25 09:55 | 25.28112 | 55.26113 | 4852 ft | 183 kts | 248° |
| 2026-04-25 09:55 | 25.27560 | 55.24794 | 5031 ft | 195 kts | 248° |
| 2026-04-25 09:55 | 25.26998 | 55.23447 | 5093 ft | 204 kts | 247° |
| 2026-04-25 09:56 | 25.26370 | 55.21959 | 5223 ft | 224 kts | 247° |
| 2026-04-25 09:56 | 25.25677 | 55.20324 | 5437 ft | 242 kts | 246° |
| 2026-04-25 09:56 | 25.24952 | 55.18637 | 6048 ft | 242 kts | 242° |
| 2026-04-25 09:56 | 25.23851 | 55.17263 | 6643 ft | 244 kts | 214° |
| 2026-04-25 09:57 | 25.22241 | 55.16647 | 7212 ft | 250 kts | 186° |
| 2026-04-25 09:57 | 25.20516 | 55.16761 | 7673 ft | 256 kts | 175° |
| 2026-04-25 09:57 | 25.18791 | 55.17413 | 8005 ft | 270 kts | 148° |
| 2026-04-25 09:57 | 25.17503 | 55.18918 | 8539 ft | 273 kts | 121° |
| 2026-04-25 09:58 | 25.16610 | 55.20805 | 8811 ft | 284 kts | 118° |
| 2026-04-25 09:58 | 25.15700 | 55.22805 | 8991 ft | 298 kts | 118° |
| 2026-04-25 09:58 | 25.14752 | 55.24851 | 9378 ft | 300 kts | 119° |
| 2026-04-25 09:58 | 25.13799 | 55.26873 | 9779 ft | 301 kts | 120° |
| 2026-04-25 09:59 | 25.12827 | 55.28910 | 10216 ft | 295 kts | 120° |
| 2026-04-25 09:59 | 25.11876 | 55.30894 | 10484 ft | 300 kts | 120° |
| 2026-04-25 09:59 | 25.10887 | 55.32945 | 10710 ft | 304 kts | 120° |
| 2026-04-25 09:59 | 25.09996 | 55.35048 | 11015 ft | 305 kts | 116° |
| 2026-04-25 10:00 | 25.09117 | 55.37202 | 11295 ft | 306 kts | 116° |
| 2026-04-25 10:00 | 25.08235 | 55.39344 | 11609 ft | 306 kts | 116° |
| 2026-04-25 10:00 | 25.07355 | 55.41476 | 11892 ft | 307 kts | 116° |
| 2026-04-25 10:00 | 25.06476 | 55.43652 | 12013 ft | 313 kts | 115° |
| 2026-04-25 10:01 | 25.05614 | 55.45896 | 12087 ft | 320 kts | 114° |
| 2026-04-25 10:01 | 25.04759 | 55.48148 | 12132 ft | 326 kts | 114° |
| 2026-04-25 10:01 | 25.03873 | 55.50478 | 12188 ft | 332 kts | 114° |
| 2026-04-25 10:01 | 25.02966 | 55.52844 | 12246 ft | 338 kts | 115° |
| 2026-04-25 10:02 | 25.02019 | 55.55247 | 12304 ft | 343 kts | 118° |
| 2026-04-25 10:02 | 25.00836 | 55.57549 | 12366 ft | 347 kts | 123° |
| 2026-04-25 10:02 | 24.99578 | 55.59846 | 12415 ft | 353 kts | 122° |
| 2026-04-25 10:02 | 24.98329 | 55.62153 | 12559 ft | 355 kts | 122° |
| 2026-04-25 10:03 | 24.97096 | 55.64435 | 12772 ft | 355 kts | 122° |
| 2026-04-25 10:03 | 24.95967 | 55.66527 | 12967 ft | 356 kts | 122° |
| 2026-04-25 10:03 | 24.94733 | 55.68814 | 13175 ft | 357 kts | 122° |
| 2026-04-25 10:03 | 24.93372 | 55.71096 | 13368 ft | 357 kts | 128° |
| 2026-04-25 10:04 | 24.91887 | 55.73312 | 13567 ft | 358 kts | 128° |
| 2026-04-25 10:04 | 24.90431 | 55.75500 | 13794 ft | 358 kts | 128° |
| 2026-04-25 10:04 | 24.88958 | 55.77723 | 13965 ft | 360 kts | 128° |
| 2026-04-25 10:04 | 24.87480 | 55.79953 | 14165 ft | 361 kts | 128° |
| 2026-04-25 10:05 | 24.85999 | 55.82188 | 14364 ft | 361 kts | 128° |
| 2026-04-25 10:05 | 24.84510 | 55.84432 | 14515 ft | 363 kts | 128° |
| 2026-04-25 10:05 | 24.83014 | 55.86676 | 14691 ft | 364 kts | 128° |
| 2026-04-25 10:05 | 24.81496 | 55.88919 | 14852 ft | 365 kts | 128° |
| 2026-04-25 10:06 | 24.79976 | 55.91155 | 15045 ft | 365 kts | 128° |
| 2026-04-25 10:06 | 24.78430 | 55.93376 | 15169 ft | 365 kts | 132° |
| 2026-04-25 10:06 | 24.76666 | 55.95385 | 15344 ft | 364 kts | 139° |
| 2026-04-25 10:06 | 24.74796 | 55.97278 | 15490 ft | 365 kts | 139° |
| 2026-04-25 10:07 | 24.72961 | 55.99157 | 15692 ft | 365 kts | 139° |
| 2026-04-25 10:07 | 24.71105 | 56.01068 | 15847 ft | 366 kts | 139° |
| 2026-04-25 10:07 | 24.69232 | 56.02997 | 15966 ft | 369 kts | 139° |
| 2026-04-25 10:07 | 24.67359 | 56.04924 | 16141 ft | 369 kts | 139° |
| 2026-04-25 10:08 | 24.65546 | 56.06791 | 16296 ft | 370 kts | 139° |
| 2026-04-25 10:08 | 24.63662 | 56.08732 | 16442 ft | 372 kts | 139° |
| 2026-04-25 10:08 | 24.61767 | 56.10682 | 16591 ft | 373 kts | 139° |
| 2026-04-25 10:08 | 24.59869 | 56.12637 | 16778 ft | 374 kts | 139° |
| 2026-04-25 10:09 | 24.57988 | 56.14570 | 16941 ft | 375 kts | 139° |
| 2026-04-25 10:09 | 24.56173 | 56.16643 | 17104 ft | 378 kts | 132° |
| 2026-04-25 10:09 | 24.54451 | 56.18865 | 17470 ft | 384 kts | 132° |
| 2026-04-25 10:09 | 24.52716 | 56.21086 | 18146 ft | 385 kts | 132° |
| 2026-04-25 10:10 | 24.50953 | 56.23332 | 18639 ft | 390 kts | 133° |
| 2026-04-25 10:10 | 24.49167 | 56.25607 | 19084 ft | 395 kts | 133° |
| 2026-04-25 10:10 | 24.47357 | 56.27908 | 19541 ft | 400 kts | 132° |
| 2026-04-25 10:10 | 24.45532 | 56.30231 | 19972 ft | 404 kts | 133° |
| 2026-04-25 10:11 | 24.43682 | 56.32583 | 20435 ft | 408 kts | 132° |
| 2026-04-25 10:11 | 24.41819 | 56.34950 | 20892 ft | 412 kts | 132° |
| 2026-04-25 10:11 | 24.39958 | 56.37312 | 21324 ft | 416 kts | 132° |
| 2026-04-25 10:11 | 24.38054 | 56.39729 | 21755 ft | 420 kts | 132° |
| 2026-04-25 10:12 | 24.36135 | 56.42164 | 22193 ft | 424 kts | 132° |
| 2026-04-25 10:12 | 24.34190 | 56.44630 | 22617 ft | 429 kts | 132° |
| 2026-04-25 10:12 | 24.30262 | 56.49612 | 23451 ft | 437 kts | 131° |
| 2026-04-25 10:13 | 24.28413 | 56.52284 | 23818 ft | 441 kts | 127° |
| 2026-04-25 10:13 | 24.26611 | 56.55022 | 24225 ft | 443 kts | 127° |
| 2026-04-25 10:13 | 24.24796 | 56.57765 | 24660 ft | 445 kts | 127° |
| 2026-04-25 10:13 | 24.22966 | 56.60523 | 24848 ft | 450 kts | 127° |
| 2026-04-25 10:14 | 24.21095 | 56.63336 | 24880 ft | 464 kts | 127° |
| 2026-04-25 10:14 | 24.19164 | 56.66238 | 24887 ft | 474 kts | 127° |
| 2026-04-25 10:14 | 24.17238 | 56.69132 | 24894 ft | 476 kts | 127° |
| 2026-04-25 10:14 | 24.15295 | 56.72052 | 24896 ft | 474 kts | 127° |
| 2026-04-25 10:15 | 24.13345 | 56.74981 | 24903 ft | 474 kts | 127° |
| 2026-04-25 10:15 | 24.11397 | 56.77904 | 24905 ft | 474 kts | 127° |
| 2026-04-25 10:15 | 24.09454 | 56.80819 | 24911 ft | 474 kts | 127° |
| 2026-04-25 10:15 | 24.07513 | 56.83728 | 24914 ft | 474 kts | 127° |
| 2026-04-25 10:16 | 24.05559 | 56.86654 | 24915 ft | 474 kts | 127° |
| 2026-04-25 10:16 | 24.03644 | 56.89521 | 24913 ft | 473 kts | 127° |
| 2026-04-25 10:16 | 24.01695 | 56.92436 | 24913 ft | 473 kts | 127° |
| 2026-04-25 10:16 | 23.99750 | 56.95346 | 24897 ft | 473 kts | 127° |
| 2026-04-25 10:17 | 23.97800 | 56.98260 | 24898 ft | 473 kts | 127° |
| 2026-04-25 10:17 | 23.95851 | 57.01171 | 24897 ft | 473 kts | 127° |
| 2026-04-25 10:17 | 23.93903 | 57.04080 | 24892 ft | 473 kts | 127° |
| 2026-04-25 10:17 | 23.91980 | 57.06949 | 24895 ft | 473 kts | 127° |
| 2026-04-25 10:18 | 23.90034 | 57.09850 | 24893 ft | 473 kts | 127° |
| 2026-04-25 10:18 | 23.88103 | 57.12730 | 24837 ft | 462 kts | 127° |
| 2026-04-25 10:18 | 23.86227 | 57.15525 | 24612 ft | 449 kts | 127° |
| 2026-04-25 10:18 | 23.84402 | 57.18243 | 24390 ft | 438 kts | 128° |
| 2026-04-25 10:19 | 23.82600 | 57.20922 | 24145 ft | 437 kts | 128° |
| 2026-04-25 10:19 | 23.80796 | 57.23601 | 23582 ft | 439 kts | 128° |
| 2026-04-25 10:19 | 23.78975 | 57.26306 | 22782 ft | 442 kts | 127° |
| 2026-04-25 10:19 | 23.77167 | 57.28989 | 22303 ft | 434 kts | 127° |
| 2026-04-25 10:20 | 23.75417 | 57.31590 | 21822 ft | 427 kts | 127° |
| 2026-04-25 10:20 | 23.73691 | 57.34254 | 21252 ft | 422 kts | 122° |
| 2026-04-25 10:20 | 23.72420 | 57.37088 | 20695 ft | 419 kts | 111° |
| 2026-04-25 10:20 | 23.71648 | 57.40146 | 20136 ft | 416 kts | 100° |
| 2026-04-25 10:21 | 23.71221 | 57.43268 | 19567 ft | 412 kts | 99° |
| 2026-04-25 10:21 | 23.70789 | 57.46355 | 19015 ft | 408 kts | 99° |
| 2026-04-25 10:21 | 23.70352 | 57.49395 | 18449 ft | 405 kts | 99° |
| 2026-04-25 10:21 | 23.69920 | 57.52380 | 17855 ft | 401 kts | 99° |
| 2026-04-25 10:22 | 23.69487 | 57.55361 | 17298 ft | 395 kts | 99° |
| 2026-04-25 10:22 | 23.69198 | 57.57357 | 16933 ft | 391 kts | 99° |
| 2026-04-25 10:22 | 23.68641 | 57.61198 | 16213 ft | 384 kts | 99° |
| 2026-04-25 10:22 | 23.68225 | 57.64061 | 15676 ft | 379 kts | 99° |
| 2026-04-25 10:23 | 23.67815 | 57.66883 | 15149 ft | 375 kts | 99° |
| 2026-04-25 10:23 | 23.67409 | 57.69680 | 14647 ft | 370 kts | 99° |
| 2026-04-25 10:23 | 23.66907 | 57.72416 | 14142 ft | 365 kts | 105° |
| 2026-04-25 10:23 | 23.66235 | 57.75073 | 13636 ft | 361 kts | 105° |
| 2026-04-25 10:24 | 23.65574 | 57.77705 | 13075 ft | 358 kts | 105° |
| 2026-04-25 10:24 | 23.64923 | 57.80288 | 12532 ft | 356 kts | 105° |
| 2026-04-25 10:24 | 23.64264 | 57.82886 | 11983 ft | 354 kts | 106° |
| 2026-04-25 10:24 | 23.63627 | 57.85385 | 11388 ft | 350 kts | 106° |
| 2026-04-25 10:25 | 23.62961 | 57.87992 | 10877 ft | 349 kts | 106° |
| 2026-04-25 10:25 | 23.62310 | 57.90535 | 10362 ft | 347 kts | 106° |
| 2026-04-25 10:25 | 23.61666 | 57.93050 | 9853 ft | 339 kts | 106° |
| 2026-04-25 10:25 | 23.61040 | 57.95493 | 9303 ft | 330 kts | 106° |
| 2026-04-25 10:26 | 23.60434 | 57.97854 | 8759 ft | 322 kts | 106° |
| 2026-04-25 10:26 | 23.59835 | 58.00187 | 8227 ft | 315 kts | 106° |
| 2026-04-25 10:26 | 23.59260 | 58.02469 | 7696 ft | 308 kts | 103° |
| 2026-04-25 10:26 | 23.58935 | 58.03965 | 7344 ft | 303 kts | 105° |
| 2026-04-25 10:27 | 23.58242 | 58.06073 | 7069 ft | 287 kts | 123° |
| 2026-04-25 10:27 | 23.56932 | 58.07587 | 6919 ft | 266 kts | 150° |
| 2026-04-25 10:27 | 23.55261 | 58.08219 | 6766 ft | 246 kts | 179° |
| 2026-04-25 10:27 | 23.53744 | 58.07958 | 6537 ft | 233 kts | 206° |
| 2026-04-25 10:28 | 23.52450 | 58.06819 | 6078 ft | 230 kts | 239° |
| 2026-04-25 10:28 | 23.51947 | 58.05185 | 5629 ft | 229 kts | 271° |
| 2026-04-25 10:28 | 23.52264 | 58.03527 | 5288 ft | 227 kts | 294° |
| 2026-04-25 10:28 | 23.53000 | 58.02006 | 4942 ft | 226 kts | 298° |
| 2026-04-25 10:29 | 23.53598 | 58.00477 | 4923 ft | 209 kts | 288° |
| 2026-04-25 10:29 | 23.53998 | 57.99002 | 4993 ft | 197 kts | 285° |
| 2026-04-25 10:29 | 23.54336 | 57.97591 | 4990 ft | 193 kts | 285° |
| 2026-04-25 10:29 | 23.54670 | 57.96183 | 4994 ft | 195 kts | 285° |
| 2026-04-25 10:30 | 23.55080 | 57.94780 | 4998 ft | 196 kts | 298° |
| 2026-04-25 10:30 | 23.55932 | 57.93667 | 5005 ft | 186 kts | 323° |
| 2026-04-25 10:30 | 23.57100 | 57.93157 | 4986 ft | 182 kts | 360° |
| 2026-04-25 10:30 | 23.58214 | 57.93688 | 4995 ft | 184 kts | 47° |
| 2026-04-25 10:31 | 23.58604 | 57.94993 | 4999 ft | 187 kts | 93° |
| 2026-04-25 10:31 | 23.58422 | 57.96402 | 4961 ft | 189 kts | 95° |
| 2026-04-25 10:31 | 23.58377 | 57.97832 | 4777 ft | 188 kts | 87° |
| 2026-04-25 10:31 | 23.58458 | 57.99245 | 4541 ft | 185 kts | 84° |
| 2026-04-25 10:32 | 23.58571 | 58.00637 | 4308 ft | 184 kts | 83° |
| 2026-04-25 10:32 | 23.58681 | 58.02026 | 4073 ft | 183 kts | 83° |
| 2026-04-25 10:32 | 23.58793 | 58.03416 | 3842 ft | 183 kts | 83° |
| 2026-04-25 10:32 | 23.58903 | 58.04791 | 3619 ft | 182 kts | 83° |
| 2026-04-25 10:33 | 23.59012 | 58.06151 | 3381 ft | 181 kts | 83° |
| 2026-04-25 10:33 | 23.59121 | 58.07513 | 3160 ft | 179 kts | 83° |
| 2026-04-25 10:33 | 23.59231 | 58.08868 | 2932 ft | 178 kts | 83° |
| 2026-04-25 10:33 | 23.59338 | 58.10209 | 2719 ft | 172 kts | 83° |
| 2026-04-25 10:34 | 23.59437 | 58.11452 | 2502 ft | 161 kts | 82° |
| 2026-04-25 10:34 | 23.59534 | 58.12650 | 2301 ft | 156 kts | 82° |
| 2026-04-25 10:34 | 23.59625 | 58.13803 | 2112 ft | 148 kts | 83° |
| 2026-04-25 10:34 | 23.59716 | 58.14917 | 1918 ft | 147 kts | 82° |
| 2026-04-25 10:35 | 23.59805 | 58.16017 | 1736 ft | 146 kts | 82° |
| 2026-04-25 10:35 | 23.59895 | 58.17112 | 1573 ft | 144 kts | 83° |
| 2026-04-25 10:35 | 23.60005 | 58.18190 | 1432 ft | 143 kts | 81° |
| 2026-04-25 10:35 | 23.60099 | 58.19272 | 1327 ft | 143 kts | 83° |
| 2026-04-25 10:36 | 23.60180 | 58.20358 | 1119 ft | 143 kts | 82° |
| 2026-04-25 10:36 | 23.60258 | 58.21414 | 855 ft | 139 kts | 83° |
| 2026-04-25 10:36 | 23.60340 | 58.22427 | 691 ft | 136 kts | 83° |
| 2026-04-25 10:36 | 23.60416 | 58.23455 | 517 ft | 138 kts | 84° |
| 2026-04-25 10:37 | 23.60490 | 58.24516 | 314 ft | 142 kts | 82° |
| 2026-04-25 10:37 | 23.60574 | 58.25583 | 118 ft | 140 kts | 82° |
| 2026-04-25 10:37 | 23.60662 | 58.26611 | 41 ft | 120 kts | 86° |
| 2026-04-25 10:37 | 23.60714 | 58.27307 | 40 ft | 64 kts | 85° |
| 2026-04-25 10:38 | 23.60747 | 58.27726 | 38 ft | 48 kts | 85° |
| 2026-04-25 10:38 | 23.60774 | 58.28033 | 38 ft | 37 kts | 86° |
| 2026-04-25 10:38 | 23.60779 | 58.28182 | 38 ft | 7 kts | 91° |
| 2026-04-25 10:38 | 23.60767 | 58.28302 | 40 ft | 22 kts | 102° |
| 2026-04-25 10:39 | 23.60728 | 58.28426 | 40 ft | 14 kts | 112° |
| 2026-04-25 10:39 | 23.60712 | 58.28468 | 40 ft | 0 kts | 113° |
| 2026-04-25 10:40 | 23.60710 | 58.28472 | 40 ft | 0 kts | 113° |
| 2026-04-25 10:40 | 23.60702 | 58.28494 | 40 ft | 6 kts | 113° |
| 2026-04-25 10:40 | 23.60674 | 58.28557 | 40 ft | 12 kts | 116° |
| 2026-04-25 10:41 | 23.60652 | 58.28649 | 40 ft | 14 kts | 94° |
| 2026-04-25 10:41 | 23.60653 | 58.28746 | 40 ft | 10 kts | 86° |
| 2026-04-25 10:41 | 23.60654 | 58.28769 | 40 ft | 1 kts | 88° |
| 2026-04-25 10:41 | 23.60654 | 58.28773 | 40 ft | 0 kts | 89° |
| 2026-04-25 10:42 | 23.60655 | 58.28783 | 40 ft | 4 kts | 91° |
| 2026-04-25 10:42 | 23.60639 | 58.28824 | 39 ft | 7 kts | 139° |
| 2026-04-25 10:42 | 23.60597 | 58.28828 | 39 ft | 8 kts | 201° |
| 2026-04-25 10:42 | 23.60571 | 58.28773 | 39 ft | 11 kts | 266° |
| 2026-04-25 10:43 | 23.60564 | 58.28672 | 39 ft | 16 kts | 266° |
| 2026-04-25 10:43 | 23.60551 | 58.28551 | 39 ft | 15 kts | 264° |
| 2026-04-25 10:43 | 23.60531 | 58.28450 | 39 ft | 12 kts | 227° |
| 2026-04-25 10:43 | 23.60465 | 58.28438 | 39 ft | 9 kts | 176° |
| 2026-04-25 10:44 | 23.60436 | 58.28440 | 39 ft | 7 kts | 176° |
| 2026-04-25 10:44 | 23.60365 | 58.28445 | 39 ft | 13 kts | 168° |
| 2026-04-25 10:44 | 23.60336 | 58.28505 | 39 ft | 3 kts | 85° |
| 2026-04-25 10:44 | 23.60336 | 58.28506 | 39 ft | 0 kts | 85° |
| 2026-04-25 10:45 | 23.60336 | 58.28513 | 39 ft | 1 kts | 84° |
| 2026-04-25 10:45 | 23.60340 | 58.28564 | 39 ft | 0 kts | 86° |